sensor_id;sensor_type;location;lat;lon;timestamp;P1;durP1;ratioP1;P2;durP2;ratioP2
5127;SDS011;2582;48.770;9.190;2023-03-15T00:00:45;4.50;;;4.10;;
5127;SDS011;2582;48.770;9.190;2023-03-15T00:03:11;4.33;;;4.00;;
5127;SDS011;2582;48.770;9.190;2023-03-15T00:05:40;3.77;;;3.47;;
5127;SDS011;2582;48.770;9.190;2023-03-15T00:08:07;4.00;;;3.70;;
5127;SDS011;2582;48.770;9.190;2023-03-15T00:10:32;5.03;;;3.70;;
5127;SDS011;2582;48.770;9.190;2023-03-15T00:12:58;4.57;;;4.17;;
5127;SDS011;2582;48.770;9.190;2023-03-15T00:15:24;4.20;;;3.80;;
5127;SDS011;2582;48.770;9.190;2023-03-15T00:17:50;4.93;;;4.53;;
5127;SDS011;2582;48.770;9.190;2023-03-15T00:20:16;5.33;;;4.80;;
5127;SDS011;2582;48.770;9.190;2023-03-15T00:22:43;4.43;;;4.03;;
5127;SDS011;2582;48.770;9.190;2023-03-15T00:25:09;5.17;;;4.67;;
5127;SDS011;2582;48.770;9.190;2023-03-15T00:27:35;6.70;;;5.03;;
5127;SDS011;2582;48.770;9.190;2023-03-15T00:30:01;5.20;;;4.67;;
5127;SDS011;2582;48.770;9.190;2023-03-15T00:32:26;7.53;;;5.67;;
5127;SDS011;2582;48.770;9.190;2023-03-15T00:34:52;8.00;;;5.23;;
5127;SDS011;2582;48.770;9.190;2023-03-15T00:37:18;5.90;;;4.87;;
5127;SDS011;2582;48.770;9.190;2023-03-15T00:39:45;6.70;;;5.40;;
5127;SDS011;2582;48.770;9.190;2023-03-15T00:42:12;8.20;;;7.33;;
5127;SDS011;2582;48.770;9.190;2023-03-15T00:44:41;7.57;;;6.20;;
5127;SDS011;2582;48.770;9.190;2023-03-15T00:47:10;10.20;;;5.73;;
5127;SDS011;2582;48.770;9.190;2023-03-15T00:49:37;10.23;;;5.03;;
5127;SDS011;2582;48.770;9.190;2023-03-15T00:52:04;7.97;;;5.20;;
5127;SDS011;2582;48.770;9.190;2023-03-15T00:54:30;9.50;;;6.03;;
5127;SDS011;2582;48.770;9.190;2023-03-15T00:56:57;6.00;;;5.07;;
5127;SDS011;2582;48.770;9.190;2023-03-15T00:59:23;6.97;;;5.17;;
5127;SDS011;2582;48.770;9.190;2023-03-15T01:01:49;7.17;;;4.90;;
5127;SDS011;2582;48.770;9.190;2023-03-15T01:04:15;7.03;;;5.57;;
5127;SDS011;2582;48.770;9.190;2023-03-15T01:06:40;7.63;;;5.13;;
5127;SDS011;2582;48.770;9.190;2023-03-15T01:09:06;6.97;;;4.40;;
5127;SDS011;2582;48.770;9.190;2023-03-15T01:11:33;8.60;;;4.87;;
5127;SDS011;2582;48.770;9.190;2023-03-15T01:13:59;9.23;;;5.00;;
5127;SDS011;2582;48.770;9.190;2023-03-15T01:16:27;7.90;;;4.20;;
5127;SDS011;2582;48.770;9.190;2023-03-15T01:18:53;7.23;;;4.60;;
5127;SDS011;2582;48.770;9.190;2023-03-15T01:21:20;7.20;;;3.70;;
5127;SDS011;2582;48.770;9.190;2023-03-15T01:23:46;4.83;;;3.50;;
5127;SDS011;2582;48.770;9.190;2023-03-15T01:26:13;6.23;;;3.67;;
5127;SDS011;2582;48.770;9.190;2023-03-15T01:28:40;5.07;;;3.37;;
5127;SDS011;2582;48.770;9.190;2023-03-15T01:31:06;6.63;;;3.53;;
5127;SDS011;2582;48.770;9.190;2023-03-15T01:33:33;5.57;;;3.97;;
5127;SDS011;2582;48.770;9.190;2023-03-15T01:38:25;6.73;;;3.40;;
5127;SDS011;2582;48.770;9.190;2023-03-15T01:40:51;7.40;;;2.83;;
5127;SDS011;2582;48.770;9.190;2023-03-15T01:43:20;4.77;;;3.00;;
5127;SDS011;2582;48.770;9.190;2023-03-15T01:48:33;5.23;;;3.33;;
5127;SDS011;2582;48.770;9.190;2023-03-15T01:51:10;6.70;;;3.10;;
5127;SDS011;2582;48.770;9.190;2023-03-15T01:53:56;9.40;;;3.67;;
5127;SDS011;2582;48.770;9.190;2023-03-15T01:56:23;9.53;;;3.20;;
5127;SDS011;2582;48.770;9.190;2023-03-15T01:58:49;4.97;;;2.80;;
5127;SDS011;2582;48.770;9.190;2023-03-15T02:01:17;2.47;;;2.17;;
5127;SDS011;2582;48.770;9.190;2023-03-15T02:03:45;4.63;;;2.40;;
5127;SDS011;2582;48.770;9.190;2023-03-15T02:06:15;5.47;;;2.80;;
5127;SDS011;2582;48.770;9.190;2023-03-15T02:08:44;5.80;;;2.80;;
5127;SDS011;2582;48.770;9.190;2023-03-15T02:11:16;5.20;;;2.27;;
5127;SDS011;2582;48.770;9.190;2023-03-15T02:13:45;4.40;;;2.03;;
5127;SDS011;2582;48.770;9.190;2023-03-15T02:16:13;3.90;;;2.43;;
5127;SDS011;2582;48.770;9.190;2023-03-15T02:18:39;6.40;;;3.30;;
5127;SDS011;2582;48.770;9.190;2023-03-15T02:21:27;4.73;;;2.50;;
5127;SDS011;2582;48.770;9.190;2023-03-15T02:26:43;3.07;;;2.33;;
5127;SDS011;2582;48.770;9.190;2023-03-15T02:29:12;4.27;;;2.00;;
5127;SDS011;2582;48.770;9.190;2023-03-15T02:31:38;3.97;;;2.10;;
5127;SDS011;2582;48.770;9.190;2023-03-15T02:34:04;7.07;;;2.10;;
5127;SDS011;2582;48.770;9.190;2023-03-15T02:36:32;6.27;;;1.80;;
5127;SDS011;2582;48.770;9.190;2023-03-15T02:38:59;5.00;;;2.37;;
5127;SDS011;2582;48.770;9.190;2023-03-15T02:41:36;2.73;;;2.20;;
5127;SDS011;2582;48.770;9.190;2023-03-15T02:44:29;3.30;;;2.20;;
5127;SDS011;2582;48.770;9.190;2023-03-15T02:46:59;5.13;;;2.20;;
5127;SDS011;2582;48.770;9.190;2023-03-15T02:49:29;3.40;;;1.83;;
5127;SDS011;2582;48.770;9.190;2023-03-15T02:52:00;1.63;;;1.53;;
5127;SDS011;2582;48.770;9.190;2023-03-15T02:54:25;2.47;;;1.50;;
5127;SDS011;2582;48.770;9.190;2023-03-15T02:56:51;6.50;;;1.80;;
5127;SDS011;2582;48.770;9.190;2023-03-15T02:59:17;4.70;;;2.00;;
5127;SDS011;2582;48.770;9.190;2023-03-15T03:01:42;4.67;;;1.90;;
5127;SDS011;2582;48.770;9.190;2023-03-15T03:04:09;2.73;;;1.80;;
5127;SDS011;2582;48.770;9.190;2023-03-15T03:06:35;6.00;;;1.87;;
5127;SDS011;2582;48.770;9.190;2023-03-15T03:09:01;4.00;;;2.03;;
5127;SDS011;2582;48.770;9.190;2023-03-15T03:11:27;5.77;;;1.77;;
5127;SDS011;2582;48.770;9.190;2023-03-15T03:13:52;4.30;;;1.20;;
5127;SDS011;2582;48.770;9.190;2023-03-15T03:16:18;5.23;;;1.93;;
5127;SDS011;2582;48.770;9.190;2023-03-15T03:18:44;3.30;;;1.90;;
5127;SDS011;2582;48.770;9.190;2023-03-15T03:21:09;2.27;;;1.50;;
5127;SDS011;2582;48.770;9.190;2023-03-15T03:23:35;4.77;;;3.00;;
5127;SDS011;2582;48.770;9.190;2023-03-15T03:26:02;2.03;;;1.50;;
5127;SDS011;2582;48.770;9.190;2023-03-15T03:28:29;5.23;;;1.93;;
5127;SDS011;2582;48.770;9.190;2023-03-15T03:30:55;4.00;;;1.80;;
5127;SDS011;2582;48.770;9.190;2023-03-15T03:33:22;3.93;;;2.07;;
5127;SDS011;2582;48.770;9.190;2023-03-15T03:35:48;4.83;;;2.40;;
5127;SDS011;2582;48.770;9.190;2023-03-15T03:38:14;3.80;;;2.13;;
5127;SDS011;2582;48.770;9.190;2023-03-15T03:40:40;5.13;;;2.87;;
5127;SDS011;2582;48.770;9.190;2023-03-15T03:43:06;4.20;;;2.13;;
5127;SDS011;2582;48.770;9.190;2023-03-15T03:45:32;5.20;;;2.70;;
5127;SDS011;2582;48.770;9.190;2023-03-15T03:47:58;5.10;;;2.57;;
5127;SDS011;2582;48.770;9.190;2023-03-15T03:50:24;6.87;;;2.60;;
5127;SDS011;2582;48.770;9.190;2023-03-15T03:52:50;3.47;;;1.57;;
5127;SDS011;2582;48.770;9.190;2023-03-15T03:55:16;4.43;;;2.27;;
5127;SDS011;2582;48.770;9.190;2023-03-15T03:57:42;4.37;;;2.50;;
5127;SDS011;2582;48.770;9.190;2023-03-15T04:00:08;2.70;;;2.37;;
5127;SDS011;2582;48.770;9.190;2023-03-15T04:02:38;4.30;;;2.40;;
5127;SDS011;2582;48.770;9.190;2023-03-15T04:05:06;4.30;;;2.73;;
5127;SDS011;2582;48.770;9.190;2023-03-15T04:07:33;5.00;;;2.80;;
5127;SDS011;2582;48.770;9.190;2023-03-15T04:09:58;5.03;;;2.50;;
5127;SDS011;2582;48.770;9.190;2023-03-15T04:12:26;5.30;;;2.83;;
5127;SDS011;2582;48.770;9.190;2023-03-15T04:14:52;6.73;;;2.63;;
5127;SDS011;2582;48.770;9.190;2023-03-15T04:17:18;3.90;;;2.50;;
5127;SDS011;2582;48.770;9.190;2023-03-15T04:19:43;4.40;;;2.20;;
5127;SDS011;2582;48.770;9.190;2023-03-15T04:22:12;4.53;;;2.63;;
5127;SDS011;2582;48.770;9.190;2023-03-15T04:24:39;6.30;;;3.30;;
5127;SDS011;2582;48.770;9.190;2023-03-15T04:27:07;4.23;;;2.67;;
5127;SDS011;2582;48.770;9.190;2023-03-15T04:29:33;2.83;;;2.27;;
5127;SDS011;2582;48.770;9.190;2023-03-15T04:31:59;3.97;;;2.97;;
5127;SDS011;2582;48.770;9.190;2023-03-15T04:34:29;5.60;;;3.20;;
5127;SDS011;2582;48.770;9.190;2023-03-15T04:36:55;5.40;;;3.27;;
5127;SDS011;2582;48.770;9.190;2023-03-15T04:39:21;6.47;;;3.83;;
5127;SDS011;2582;48.770;9.190;2023-03-15T04:41:48;5.40;;;4.03;;
5127;SDS011;2582;48.770;9.190;2023-03-15T04:44:14;9.00;;;3.40;;
5127;SDS011;2582;48.770;9.190;2023-03-15T04:46:41;6.53;;;2.80;;
5127;SDS011;2582;48.770;9.190;2023-03-15T04:49:07;5.67;;;3.17;;
5127;SDS011;2582;48.770;9.190;2023-03-15T04:51:32;7.67;;;3.90;;
5127;SDS011;2582;48.770;9.190;2023-03-15T04:53:58;7.47;;;3.17;;
5127;SDS011;2582;48.770;9.190;2023-03-15T04:56:24;5.90;;;3.50;;
5127;SDS011;2582;48.770;9.190;2023-03-15T04:58:50;4.13;;;2.90;;
5127;SDS011;2582;48.770;9.190;2023-03-15T05:01:16;6.70;;;3.40;;
5127;SDS011;2582;48.770;9.190;2023-03-15T05:03:41;7.67;;;3.20;;
5127;SDS011;2582;48.770;9.190;2023-03-15T05:06:07;8.07;;;3.47;;
5127;SDS011;2582;48.770;9.190;2023-03-15T05:08:33;6.13;;;3.93;;
5127;SDS011;2582;48.770;9.190;2023-03-15T05:11:00;4.13;;;3.23;;
5127;SDS011;2582;48.770;9.190;2023-03-15T05:13:29;7.00;;;3.53;;
5127;SDS011;2582;48.770;9.190;2023-03-15T05:15:55;9.37;;;2.80;;
5127;SDS011;2582;48.770;9.190;2023-03-15T05:18:21;3.40;;;2.80;;
5127;SDS011;2582;48.770;9.190;2023-03-15T05:20:46;4.03;;;3.00;;
5127;SDS011;2582;48.770;9.190;2023-03-15T05:23:12;9.27;;;3.50;;
5127;SDS011;2582;48.770;9.190;2023-03-15T05:25:38;8.60;;;3.80;;
5127;SDS011;2582;48.770;9.190;2023-03-15T05:28:04;6.57;;;3.30;;
5127;SDS011;2582;48.770;9.190;2023-03-15T05:30:30;4.00;;;3.23;;
5127;SDS011;2582;48.770;9.190;2023-03-15T05:32:56;6.50;;;3.20;;
5127;SDS011;2582;48.770;9.190;2023-03-15T05:35:22;5.33;;;2.80;;
5127;SDS011;2582;48.770;9.190;2023-03-15T05:37:50;5.47;;;3.33;;
5127;SDS011;2582;48.770;9.190;2023-03-15T05:40:16;5.87;;;3.57;;
5127;SDS011;2582;48.770;9.190;2023-03-15T05:42:42;4.57;;;3.07;;
5127;SDS011;2582;48.770;9.190;2023-03-15T05:45:08;9.47;;;3.53;;
5127;SDS011;2582;48.770;9.190;2023-03-15T05:47:34;7.00;;;3.23;;
5127;SDS011;2582;48.770;9.190;2023-03-15T05:49:59;3.53;;;2.97;;
5127;SDS011;2582;48.770;9.190;2023-03-15T05:52:25;9.50;;;3.10;;
5127;SDS011;2582;48.770;9.190;2023-03-15T05:54:51;5.23;;;3.40;;
5127;SDS011;2582;48.770;9.190;2023-03-15T05:57:16;5.43;;;3.20;;
5127;SDS011;2582;48.770;9.190;2023-03-15T05:59:42;6.90;;;3.93;;
5127;SDS011;2582;48.770;9.190;2023-03-15T06:02:07;7.63;;;3.73;;
5127;SDS011;2582;48.770;9.190;2023-03-15T06:04:33;4.73;;;3.00;;
5127;SDS011;2582;48.770;9.190;2023-03-15T06:06:58;5.63;;;3.40;;
5127;SDS011;2582;48.770;9.190;2023-03-15T06:09:24;6.13;;;3.20;;
5127;SDS011;2582;48.770;9.190;2023-03-15T06:11:50;4.10;;;2.70;;
5127;SDS011;2582;48.770;9.190;2023-03-15T06:14:16;9.73;;;3.33;;
5127;SDS011;2582;48.770;9.190;2023-03-15T06:16:41;8.03;;;4.50;;
5127;SDS011;2582;48.770;9.190;2023-03-15T06:19:07;6.40;;;3.60;;
5127;SDS011;2582;48.770;9.190;2023-03-15T06:21:32;6.40;;;3.40;;
5127;SDS011;2582;48.770;9.190;2023-03-15T06:23:58;4.10;;;3.70;;
5127;SDS011;2582;48.770;9.190;2023-03-15T06:26:24;7.23;;;3.67;;
5127;SDS011;2582;48.770;9.190;2023-03-15T06:28:49;6.00;;;3.90;;
5127;SDS011;2582;48.770;9.190;2023-03-15T06:31:15;6.00;;;3.90;;
5127;SDS011;2582;48.770;9.190;2023-03-15T06:33:40;8.87;;;4.30;;
5127;SDS011;2582;48.770;9.190;2023-03-15T06:36:06;9.23;;;4.33;;
5127;SDS011;2582;48.770;9.190;2023-03-15T06:38:32;7.77;;;4.00;;
5127;SDS011;2582;48.770;9.190;2023-03-15T06:40:58;8.80;;;3.90;;
5127;SDS011;2582;48.770;9.190;2023-03-15T06:43:29;5.80;;;3.77;;
5127;SDS011;2582;48.770;9.190;2023-03-15T06:45:55;4.77;;;3.23;;
5127;SDS011;2582;48.770;9.190;2023-03-15T06:48:23;3.47;;;3.00;;
5127;SDS011;2582;48.770;9.190;2023-03-15T06:50:49;6.30;;;4.10;;
5127;SDS011;2582;48.770;9.190;2023-03-15T06:53:15;6.57;;;3.90;;
5127;SDS011;2582;48.770;9.190;2023-03-15T06:55:41;6.17;;;3.50;;
5127;SDS011;2582;48.770;9.190;2023-03-15T06:58:07;8.60;;;3.97;;
5127;SDS011;2582;48.770;9.190;2023-03-15T07:00:33;12.93;;;4.40;;
5127;SDS011;2582;48.770;9.190;2023-03-15T07:02:59;6.13;;;2.80;;
5127;SDS011;2582;48.770;9.190;2023-03-15T07:05:24;4.33;;;2.87;;
5127;SDS011;2582;48.770;9.190;2023-03-15T07:07:50;9.70;;;3.90;;
5127;SDS011;2582;48.770;9.190;2023-03-15T07:10:16;6.20;;;3.10;;
5127;SDS011;2582;48.770;9.190;2023-03-15T07:12:41;4.90;;;3.10;;
5127;SDS011;2582;48.770;9.190;2023-03-15T07:15:07;6.00;;;3.20;;
5127;SDS011;2582;48.770;9.190;2023-03-15T07:17:33;6.23;;;4.27;;
5127;SDS011;2582;48.770;9.190;2023-03-15T07:19:58;5.27;;;4.10;;
5127;SDS011;2582;48.770;9.190;2023-03-15T07:22:24;11.90;;;4.17;;
5127;SDS011;2582;48.770;9.190;2023-03-15T07:24:50;5.67;;;3.10;;
5127;SDS011;2582;48.770;9.190;2023-03-15T07:27:16;5.00;;;3.10;;
5127;SDS011;2582;48.770;9.190;2023-03-15T07:29:42;8.13;;;3.67;;
5127;SDS011;2582;48.770;9.190;2023-03-15T07:32:08;5.30;;;2.80;;
5127;SDS011;2582;48.770;9.190;2023-03-15T07:34:33;7.80;;;2.80;;
5127;SDS011;2582;48.770;9.190;2023-03-15T07:36:59;7.23;;;2.97;;
5127;SDS011;2582;48.770;9.190;2023-03-15T07:39:24;3.83;;;2.80;;
5127;SDS011;2582;48.770;9.190;2023-03-15T07:41:51;6.47;;;3.10;;
5127;SDS011;2582;48.770;9.190;2023-03-15T07:44:17;4.00;;;2.93;;
5127;SDS011;2582;48.770;9.190;2023-03-15T07:46:43;6.40;;;2.90;;
5127;SDS011;2582;48.770;9.190;2023-03-15T07:49:09;4.30;;;2.30;;
5127;SDS011;2582;48.770;9.190;2023-03-15T07:51:35;6.33;;;3.00;;
5127;SDS011;2582;48.770;9.190;2023-03-15T07:54:00;7.57;;;3.20;;
5127;SDS011;2582;48.770;9.190;2023-03-15T07:56:26;5.90;;;2.63;;
5127;SDS011;2582;48.770;9.190;2023-03-15T07:58:51;5.90;;;2.80;;
5127;SDS011;2582;48.770;9.190;2023-03-15T08:01:17;5.70;;;2.33;;
5127;SDS011;2582;48.770;9.190;2023-03-15T08:03:42;8.60;;;3.00;;
5127;SDS011;2582;48.770;9.190;2023-03-15T08:06:08;2.93;;;2.40;;
5127;SDS011;2582;48.770;9.190;2023-03-15T08:08:33;8.70;;;3.67;;
5127;SDS011;2582;48.770;9.190;2023-03-15T08:10:59;4.87;;;2.90;;
5127;SDS011;2582;48.770;9.190;2023-03-15T08:13:25;6.20;;;2.80;;
5127;SDS011;2582;48.770;9.190;2023-03-15T08:15:50;3.23;;;2.17;;
5127;SDS011;2582;48.770;9.190;2023-03-15T08:18:17;5.30;;;2.90;;
5127;SDS011;2582;48.770;9.190;2023-03-15T08:20:42;3.70;;;2.27;;
5127;SDS011;2582;48.770;9.190;2023-03-15T08:23:08;5.47;;;2.50;;
5127;SDS011;2582;48.770;9.190;2023-03-15T08:25:34;3.57;;;2.60;;
5127;SDS011;2582;48.770;9.190;2023-03-15T08:28:04;6.00;;;2.70;;
5127;SDS011;2582;48.770;9.190;2023-03-15T08:30:30;5.67;;;2.57;;
5127;SDS011;2582;48.770;9.190;2023-03-15T08:32:55;8.73;;;3.90;;
5127;SDS011;2582;48.770;9.190;2023-03-15T08:35:21;5.13;;;2.47;;
5127;SDS011;2582;48.770;9.190;2023-03-15T08:37:46;6.67;;;3.57;;
5127;SDS011;2582;48.770;9.190;2023-03-15T08:40:13;4.37;;;2.73;;
5127;SDS011;2582;48.770;9.190;2023-03-15T08:42:40;2.60;;;2.40;;
5127;SDS011;2582;48.770;9.190;2023-03-15T08:45:06;4.70;;;2.37;;
5127;SDS011;2582;48.770;9.190;2023-03-15T08:47:33;4.67;;;2.50;;
5127;SDS011;2582;48.770;9.190;2023-03-15T08:49:59;4.53;;;2.80;;
5127;SDS011;2582;48.770;9.190;2023-03-15T08:52:25;9.23;;;2.67;;
5127;SDS011;2582;48.770;9.190;2023-03-15T08:54:51;6.60;;;2.70;;
5127;SDS011;2582;48.770;9.190;2023-03-15T08:57:16;4.47;;;2.47;;
5127;SDS011;2582;48.770;9.190;2023-03-15T08:59:42;6.10;;;2.90;;
5127;SDS011;2582;48.770;9.190;2023-03-15T09:02:08;5.50;;;2.80;;
5127;SDS011;2582;48.770;9.190;2023-03-15T09:04:35;5.10;;;2.10;;
5127;SDS011;2582;48.770;9.190;2023-03-15T09:07:01;5.90;;;2.30;;
5127;SDS011;2582;48.770;9.190;2023-03-15T09:09:27;4.60;;;2.20;;
5127;SDS011;2582;48.770;9.190;2023-03-15T09:11:52;3.50;;;2.30;;
5127;SDS011;2582;48.770;9.190;2023-03-15T09:14:19;4.43;;;2.10;;
5127;SDS011;2582;48.770;9.190;2023-03-15T09:16:44;8.60;;;2.43;;
5127;SDS011;2582;48.770;9.190;2023-03-15T09:19:10;6.30;;;2.33;;
5127;SDS011;2582;48.770;9.190;2023-03-15T09:21:36;7.53;;;3.10;;
5127;SDS011;2582;48.770;9.190;2023-03-15T09:24:01;8.33;;;2.90;;
5127;SDS011;2582;48.770;9.190;2023-03-15T09:26:27;5.57;;;2.50;;
5127;SDS011;2582;48.770;9.190;2023-03-15T09:28:52;5.30;;;2.20;;
5127;SDS011;2582;48.770;9.190;2023-03-15T09:31:18;5.80;;;2.80;;
5127;SDS011;2582;48.770;9.190;2023-03-15T09:33:43;9.30;;;2.63;;
5127;SDS011;2582;48.770;9.190;2023-03-15T09:36:12;4.93;;;2.40;;
5127;SDS011;2582;48.770;9.190;2023-03-15T09:38:37;5.23;;;1.80;;
5127;SDS011;2582;48.770;9.190;2023-03-15T09:41:03;7.97;;;2.10;;
5127;SDS011;2582;48.770;9.190;2023-03-15T09:49:16;5.57;;;1.70;;
5127;SDS011;2582;48.770;9.190;2023-03-15T09:51:54;3.90;;;2.50;;
5127;SDS011;2582;48.770;9.190;2023-03-15T09:57:01;5.03;;;2.47;;
5127;SDS011;2582;48.770;9.190;2023-03-15T09:59:30;3.97;;;2.50;;
5127;SDS011;2582;48.770;9.190;2023-03-15T10:02:03;5.00;;;2.20;;
5127;SDS011;2582;48.770;9.190;2023-03-15T10:04:37;2.80;;;1.60;;
5127;SDS011;2582;48.770;9.190;2023-03-15T10:07:08;2.70;;;2.07;;
5127;SDS011;2582;48.770;9.190;2023-03-15T10:09:37;5.10;;;2.23;;
5127;SDS011;2582;48.770;9.190;2023-03-15T10:12:10;4.20;;;2.33;;
5127;SDS011;2582;48.770;9.190;2023-03-15T10:14:45;3.77;;;1.60;;
5127;SDS011;2582;48.770;9.190;2023-03-15T10:20:13;6.20;;;2.20;;
5127;SDS011;2582;48.770;9.190;2023-03-15T10:22:47;3.30;;;1.77;;
5127;SDS011;2582;48.770;9.190;2023-03-15T10:25:27;2.67;;;1.60;;
5127;SDS011;2582;48.770;9.190;2023-03-15T10:30:31;3.03;;;1.30;;
5127;SDS011;2582;48.770;9.190;2023-03-15T10:33:03;2.83;;;1.80;;
5127;SDS011;2582;48.770;9.190;2023-03-15T10:35:38;4.70;;;1.60;;
5127;SDS011;2582;48.770;9.190;2023-03-15T10:38:14;5.03;;;1.90;;
5127;SDS011;2582;48.770;9.190;2023-03-15T10:40:47;4.87;;;1.90;;
5127;SDS011;2582;48.770;9.190;2023-03-15T10:45:41;2.93;;;1.87;;
5127;SDS011;2582;48.770;9.190;2023-03-15T10:48:10;4.37;;;1.50;;
5127;SDS011;2582;48.770;9.190;2023-03-15T10:50:36;6.70;;;1.80;;
5127;SDS011;2582;48.770;9.190;2023-03-15T10:53:08;3.00;;;1.50;;
5127;SDS011;2582;48.770;9.190;2023-03-15T10:55:36;4.80;;;1.87;;
5127;SDS011;2582;48.770;9.190;2023-03-15T11:00:53;3.10;;;1.80;;
5127;SDS011;2582;48.770;9.190;2023-03-15T11:03:27;2.23;;;1.17;;
5127;SDS011;2582;48.770;9.190;2023-03-15T11:05:55;2.80;;;1.30;;
5127;SDS011;2582;48.770;9.190;2023-03-15T11:08:23;3.93;;;1.87;;
5127;SDS011;2582;48.770;9.190;2023-03-15T11:11:01;4.50;;;1.73;;
5127;SDS011;2582;48.770;9.190;2023-03-15T11:13:28;2.83;;;1.60;;
5127;SDS011;2582;48.770;9.190;2023-03-15T11:16:17;3.13;;;1.73;;
5127;SDS011;2582;48.770;9.190;2023-03-15T11:18:50;2.80;;;1.50;;
5127;SDS011;2582;48.770;9.190;2023-03-15T11:21:22;1.93;;;1.40;;
5127;SDS011;2582;48.770;9.190;2023-03-15T11:23:50;3.23;;;1.70;;
5127;SDS011;2582;48.770;9.190;2023-03-15T11:26:23;4.90;;;1.83;;
5127;SDS011;2582;48.770;9.190;2023-03-15T11:29:00;2.40;;;1.57;;
5127;SDS011;2582;48.770;9.190;2023-03-15T11:31:30;3.47;;;1.50;;
5127;SDS011;2582;48.770;9.190;2023-03-15T11:34:05;2.60;;;1.30;;
5127;SDS011;2582;48.770;9.190;2023-03-15T11:36:37;3.87;;;1.67;;
5127;SDS011;2582;48.770;9.190;2023-03-15T11:39:07;2.00;;;1.40;;
5127;SDS011;2582;48.770;9.190;2023-03-15T11:41:43;1.97;;;1.10;;
5127;SDS011;2582;48.770;9.190;2023-03-15T11:46:50;2.93;;;1.37;;
5127;SDS011;2582;48.770;9.190;2023-03-15T11:51:50;2.90;;;1.00;;
5127;SDS011;2582;48.770;9.190;2023-03-15T11:54:19;7.03;;;1.30;;
5127;SDS011;2582;48.770;9.190;2023-03-15T11:56:49;3.67;;;1.37;;
5127;SDS011;2582;48.770;9.190;2023-03-15T11:59:34;1.30;;;1.00;;
5127;SDS011;2582;48.770;9.190;2023-03-15T12:07:00;3.40;;;1.33;;
5127;SDS011;2582;48.770;9.190;2023-03-15T12:12:43;2.33;;;1.00;;
5127;SDS011;2582;48.770;9.190;2023-03-15T12:14:47;3.50;;;1.33;;
5127;SDS011;2582;48.770;9.190;2023-03-15T12:19:58;4.90;;;1.83;;
5127;SDS011;2582;48.770;9.190;2023-03-15T12:22:26;3.43;;;1.80;;
5127;SDS011;2582;48.770;9.190;2023-03-15T12:24:56;3.03;;;2.10;;
5127;SDS011;2582;48.770;9.190;2023-03-15T12:27:28;4.83;;;1.60;;
5127;SDS011;2582;48.770;9.190;2023-03-15T12:29:57;2.70;;;1.00;;
5127;SDS011;2582;48.770;9.190;2023-03-15T12:32:25;3.17;;;1.13;;
5127;SDS011;2582;48.770;9.190;2023-03-15T12:34:56;1.90;;;1.30;;
5127;SDS011;2582;48.770;9.190;2023-03-15T12:50:57;5.87;;;1.30;;
5127;SDS011;2582;48.770;9.190;2023-03-15T12:53:53;3.57;;;1.40;;
5127;SDS011;2582;48.770;9.190;2023-03-15T12:58:50;2.73;;;1.80;;
5127;SDS011;2582;48.770;9.190;2023-03-15T13:01:19;2.00;;;1.60;;
5127;SDS011;2582;48.770;9.190;2023-03-15T13:03:51;5.23;;;1.87;;
5127;SDS011;2582;48.770;9.190;2023-03-15T13:09:11;5.63;;;2.30;;
5127;SDS011;2582;48.770;9.190;2023-03-15T13:23:03;5.87;;;3.40;;
5127;SDS011;2582;48.770;9.190;2023-03-15T13:25:48;6.20;;;2.70;;
5127;SDS011;2582;48.770;9.190;2023-03-15T13:28:22;3.43;;;1.67;;
5127;SDS011;2582;48.770;9.190;2023-03-15T13:30:52;4.50;;;2.00;;
5127;SDS011;2582;48.770;9.190;2023-03-15T13:33:22;6.03;;;2.60;;
5127;SDS011;2582;48.770;9.190;2023-03-15T13:35:53;3.80;;;2.80;;
5127;SDS011;2582;48.770;9.190;2023-03-15T13:40:47;4.00;;;1.80;;
5127;SDS011;2582;48.770;9.190;2023-03-15T13:43:13;4.70;;;1.90;;
5127;SDS011;2582;48.770;9.190;2023-03-15T13:45:42;3.40;;;2.30;;
5127;SDS011;2582;48.770;9.190;2023-03-15T13:48:08;3.30;;;2.17;;
5127;SDS011;2582;48.770;9.190;2023-03-15T13:50:34;5.50;;;3.63;;
5127;SDS011;2582;48.770;9.190;2023-03-15T13:53:00;4.63;;;2.33;;
5127;SDS011;2582;48.770;9.190;2023-03-15T13:55:28;7.20;;;2.90;;
5127;SDS011;2582;48.770;9.190;2023-03-15T13:57:57;4.63;;;2.10;;
5127;SDS011;2582;48.770;9.190;2023-03-15T14:00:28;5.43;;;2.30;;
5127;SDS011;2582;48.770;9.190;2023-03-15T14:02:58;2.53;;;1.70;;
5127;SDS011;2582;48.770;9.190;2023-03-15T14:05:27;4.20;;;2.37;;
5127;SDS011;2582;48.770;9.190;2023-03-15T14:08:14;4.73;;;2.40;;
5127;SDS011;2582;48.770;9.190;2023-03-15T14:10:58;3.00;;;2.23;;
5127;SDS011;2582;48.770;9.190;2023-03-15T14:13:26;5.03;;;2.37;;
5127;SDS011;2582;48.770;9.190;2023-03-15T14:16:00;9.10;;;7.00;;
5127;SDS011;2582;48.770;9.190;2023-03-15T14:18:29;5.13;;;2.10;;
5127;SDS011;2582;48.770;9.190;2023-03-15T14:21:06;2.63;;;2.43;;
5127;SDS011;2582;48.770;9.190;2023-03-15T14:23:46;4.10;;;2.20;;
5127;SDS011;2582;48.770;9.190;2023-03-15T14:26:16;2.73;;;2.00;;
5127;SDS011;2582;48.770;9.190;2023-03-15T14:28:46;3.13;;;2.13;;
5127;SDS011;2582;48.770;9.190;2023-03-15T14:31:22;4.17;;;2.03;;
5127;SDS011;2582;48.770;9.190;2023-03-15T14:34:04;3.00;;;1.83;;
5127;SDS011;2582;48.770;9.190;2023-03-15T14:36:40;4.70;;;2.20;;
5127;SDS011;2582;48.770;9.190;2023-03-15T14:39:18;3.10;;;2.13;;
5127;SDS011;2582;48.770;9.190;2023-03-15T14:42:13;2.40;;;1.50;;
5127;SDS011;2582;48.770;9.190;2023-03-15T14:44:39;10.23;;;1.90;;
5127;SDS011;2582;48.770;9.190;2023-03-15T14:47:11;1.70;;;1.40;;
5127;SDS011;2582;48.770;9.190;2023-03-15T14:49:40;2.10;;;1.90;;
5127;SDS011;2582;48.770;9.190;2023-03-15T14:52:06;4.23;;;1.73;;
5127;SDS011;2582;48.770;9.190;2023-03-15T14:54:32;3.00;;;2.00;;
5127;SDS011;2582;48.770;9.190;2023-03-15T14:56:58;3.50;;;1.80;;
5127;SDS011;2582;48.770;9.190;2023-03-15T14:59:24;5.27;;;2.40;;
5127;SDS011;2582;48.770;9.190;2023-03-15T15:01:53;4.23;;;2.00;;
5127;SDS011;2582;48.770;9.190;2023-03-15T15:04:20;2.60;;;2.13;;
5127;SDS011;2582;48.770;9.190;2023-03-15T15:06:47;4.53;;;2.70;;
5127;SDS011;2582;48.770;9.190;2023-03-15T15:09:17;2.23;;;2.13;;
5127;SDS011;2582;48.770;9.190;2023-03-15T15:11:47;2.50;;;2.00;;
5127;SDS011;2582;48.770;9.190;2023-03-15T15:14:14;5.77;;;3.07;;
5127;SDS011;2582;48.770;9.190;2023-03-15T15:16:40;3.97;;;2.13;;
5127;SDS011;2582;48.770;9.190;2023-03-15T15:19:06;9.10;;;2.50;;
5127;SDS011;2582;48.770;9.190;2023-03-15T15:21:33;5.40;;;3.50;;
5127;SDS011;2582;48.770;9.190;2023-03-15T15:24:00;6.00;;;5.40;;
5127;SDS011;2582;48.770;9.190;2023-03-15T15:26:28;3.07;;;2.70;;
5127;SDS011;2582;48.770;9.190;2023-03-15T15:28:54;2.83;;;2.13;;
5127;SDS011;2582;48.770;9.190;2023-03-15T15:31:22;3.47;;;1.90;;
5127;SDS011;2582;48.770;9.190;2023-03-15T15:33:49;2.90;;;2.53;;
5127;SDS011;2582;48.770;9.190;2023-03-15T15:36:15;3.30;;;2.47;;
5127;SDS011;2582;48.770;9.190;2023-03-15T15:38:48;2.30;;;1.80;;
5127;SDS011;2582;48.770;9.190;2023-03-15T15:41:15;5.07;;;2.03;;
5127;SDS011;2582;48.770;9.190;2023-03-15T15:43:52;2.77;;;2.03;;
5127;SDS011;2582;48.770;9.190;2023-03-15T15:46:18;1.90;;;1.80;;
5127;SDS011;2582;48.770;9.190;2023-03-15T15:48:43;1.50;;;1.40;;
5127;SDS011;2582;48.770;9.190;2023-03-15T15:51:28;2.03;;;1.87;;
5127;SDS011;2582;48.770;9.190;2023-03-15T15:53:58;2.50;;;2.30;;
5127;SDS011;2582;48.770;9.190;2023-03-15T15:56:29;1.67;;;1.50;;
5127;SDS011;2582;48.770;9.190;2023-03-15T15:59:03;2.73;;;1.70;;
5127;SDS011;2582;48.770;9.190;2023-03-15T16:01:31;1.60;;;1.40;;
5127;SDS011;2582;48.770;9.190;2023-03-15T16:03:56;1.93;;;1.80;;
5127;SDS011;2582;48.770;9.190;2023-03-15T16:06:23;2.40;;;2.00;;
5127;SDS011;2582;48.770;9.190;2023-03-15T16:08:49;2.60;;;2.17;;
5127;SDS011;2582;48.770;9.190;2023-03-15T16:11:16;2.97;;;2.27;;
5127;SDS011;2582;48.770;9.190;2023-03-15T16:13:43;2.20;;;1.80;;
5127;SDS011;2582;48.770;9.190;2023-03-15T16:16:12;2.47;;;2.00;;
5127;SDS011;2582;48.770;9.190;2023-03-15T16:18:40;2.57;;;1.80;;
5127;SDS011;2582;48.770;9.190;2023-03-15T16:21:09;2.60;;;1.80;;
5127;SDS011;2582;48.770;9.190;2023-03-15T16:23:39;1.80;;;1.70;;
5127;SDS011;2582;48.770;9.190;2023-03-15T16:26:04;1.87;;;1.73;;
5127;SDS011;2582;48.770;9.190;2023-03-15T16:28:30;3.87;;;2.33;;
5127;SDS011;2582;48.770;9.190;2023-03-15T16:30:56;2.07;;;1.97;;
5127;SDS011;2582;48.770;9.190;2023-03-15T16:33:22;2.47;;;1.60;;
5127;SDS011;2582;48.770;9.190;2023-03-15T16:35:47;2.00;;;1.50;;